createdAt,value
2023-04-04T00:01:14.160Z,11.13
2023-04-04T00:03:44.199Z,11.63
2023-04-04T00:06:13.520Z,12.18
2023-04-04T00:08:43.379Z,12.27
2023-04-04T00:11:12.775Z,12.95
2023-04-04T00:13:43.145Z,12.88
2023-04-04T00:16:12.735Z,13.02
2023-04-04T00:18:42.078Z,11.27
2023-04-04T00:21:11.963Z,13.18
2023-04-04T00:23:41.256Z,11.73
2023-04-04T00:26:10.708Z,10.10
2023-04-04T00:28:42.096Z,9.55
2023-04-04T00:31:12.002Z,9.85
2023-04-04T00:33:41.341Z,8.32
2023-04-04T00:36:10.714Z,7.03
2023-04-04T00:38:41.257Z,7.32
2023-04-04T00:41:10.856Z,5.80
2023-04-04T00:43:41.761Z,5.53
2023-04-04T00:46:16.668Z,4.53
2023-04-04T00:48:46.433Z,5.13
2023-04-04T00:51:15.884Z,5.38
2023-04-04T00:53:48.214Z,5.00
2023-04-04T00:56:20.435Z,5.17
2023-04-04T00:58:53.473Z,5.10
2023-04-04T01:01:23.315Z,4.65
2023-04-04T01:03:53.257Z,4.60
2023-04-04T01:06:23.000Z,4.63
2023-04-04T01:08:53.862Z,4.22
2023-04-04T01:11:23.339Z,4.45
2023-04-04T01:13:53.964Z,4.82
2023-04-04T01:16:25.455Z,4.55
2023-04-04T01:18:56.230Z,4.90
2023-04-04T01:21:27.108Z,4.97
2023-04-04T01:24:05.144Z,4.93
2023-04-04T01:26:52.842Z,4.60
2023-04-04T01:29:22.971Z,5.05
2023-04-04T01:32:02.030Z,4.97
2023-04-04T01:34:46.218Z,5.78
2023-04-04T01:37:56.959Z,5.53
2023-04-04T01:40:30.479Z,4.93
2023-04-04T01:42:59.922Z,5.07
2023-04-04T01:45:32.120Z,4.43
2023-04-04T01:48:04.535Z,4.70
2023-04-04T01:50:34.371Z,4.90
2023-04-04T01:53:04.197Z,4.28
2023-04-04T01:55:33.507Z,4.22
2023-04-04T01:58:03.758Z,3.80
2023-04-04T02:00:33.455Z,4.45
2023-04-04T02:03:03.787Z,4.22
2023-04-04T02:05:33.270Z,3.70
2023-04-04T02:08:02.843Z,3.97
2023-04-04T02:10:41.041Z,4.20
2023-04-04T02:13:10.677Z,3.67
2023-04-04T02:15:40.247Z,3.45
2023-04-04T02:18:10.585Z,2.90
2023-04-04T02:20:40.166Z,3.70
2023-04-04T02:23:09.656Z,3.58
2023-04-04T02:25:38.789Z,2.72
2023-04-04T02:28:08.411Z,3.45
2023-04-04T02:30:37.790Z,2.72
2023-04-04T02:33:07.172Z,3.05
2023-04-04T02:35:36.769Z,2.50
2023-04-04T02:38:06.114Z,2.83
2023-04-04T02:40:43.755Z,3.00
2023-04-04T02:43:13.163Z,2.47
2023-04-04T02:45:43.514Z,2.22
2023-04-04T02:48:32.587Z,2.80
2023-04-04T02:51:04.223Z,2.88
2023-04-04T02:53:35.512Z,2.80
2023-04-04T02:56:16.946Z,2.65
2023-04-04T02:58:46.880Z,2.83
2023-04-04T03:01:16.516Z,3.75
2023-04-04T03:03:47.901Z,4.18
2023-04-04T03:06:17.299Z,4.28
2023-04-04T03:11:22.182Z,5.78
2023-04-04T03:13:56.471Z,5.03
2023-04-04T03:16:34.992Z,5.10
2023-04-04T03:19:05.144Z,5.40
2023-04-04T03:21:34.412Z,5.30
2023-04-04T03:24:04.081Z,5.93
2023-04-04T03:26:34.465Z,7.18
2023-04-04T03:29:06.083Z,9.02
2023-04-04T03:31:35.870Z,10.20
2023-04-04T03:34:05.847Z,14.98
2023-04-04T03:36:35.305Z,19.70
2023-04-04T03:39:04.417Z,21.17
2023-04-04T03:41:34.026Z,25.80
2023-04-04T03:44:06.701Z,23.00
2023-04-04T03:46:36.126Z,22.58
2023-04-04T03:49:05.774Z,21.65
2023-04-04T03:51:35.402Z,26.27
2023-04-04T03:54:06.414Z,27.52
2023-04-04T03:56:36.462Z,31.23
2023-04-04T03:59:08.435Z,33.47
2023-04-04T04:01:38.467Z,37.10
2023-04-04T04:04:08.250Z,31.88
2023-04-04T04:06:38.478Z,30.40
2023-04-04T04:09:08.019Z,25.65
2023-04-04T04:11:38.241Z,34.55
2023-04-04T04:14:07.707Z,34.88
2023-04-04T04:16:42.659Z,39.30
2023-04-04T04:19:16.066Z,37.10
2023-04-04T04:21:45.881Z,38.08
2023-04-04T04:24:15.100Z,39.55
2023-04-04T04:26:44.604Z,35.97
2023-04-04T04:29:17.765Z,35.22
2023-04-04T04:31:48.118Z,32.58
2023-04-04T04:34:17.770Z,29.95
2023-04-04T04:36:48.512Z,25.77
2023-04-04T04:39:28.424Z,21.73
2023-04-04T04:42:24.639Z,21.92
2023-04-04T04:44:58.578Z,17.85
2023-04-04T04:47:28.775Z,16.63
2023-04-04T04:49:58.421Z,15.13
2023-04-04T04:52:40.606Z,14.48
2023-04-04T04:55:10.911Z,11.93
2023-04-04T04:57:47.843Z,8.90
2023-04-04T05:00:24.969Z,7.32
2023-04-04T05:02:58.090Z,5.70
2023-04-04T05:05:37.343Z,5.03
2023-04-04T05:08:10.829Z,4.93
2023-04-04T05:10:47.291Z,4.82
2023-04-04T05:13:16.680Z,4.53
2023-04-04T05:15:49.101Z,4.40
2023-04-04T05:18:19.298Z,4.93
2023-04-04T05:20:55.336Z,3.90
2023-04-04T05:23:28.327Z,5.15
2023-04-04T05:25:59.073Z,5.78
2023-04-04T05:28:34.923Z,6.20
2023-04-04T05:31:06.614Z,6.03
2023-04-04T05:33:38.067Z,6.35
2023-04-04T05:36:15.839Z,5.50
2023-04-04T05:38:53.902Z,4.95
2023-04-04T05:41:26.542Z,4.90
2023-04-04T05:44:02.651Z,4.45
2023-04-04T05:46:32.517Z,5.00
2023-04-04T05:49:01.933Z,4.63
2023-04-04T05:51:32.058Z,4.95
2023-04-04T05:54:10.899Z,4.65
2023-04-04T05:56:41.654Z,5.18
2023-04-04T05:59:25.655Z,4.63
2023-04-04T06:02:03.283Z,4.88
2023-04-04T06:04:34.595Z,5.00
2023-04-04T06:07:06.523Z,6.30
2023-04-04T06:09:37.307Z,5.18
2023-04-04T06:12:07.214Z,6.18
2023-04-04T06:14:39.990Z,6.10
2023-04-04T06:17:10.903Z,6.65
2023-04-04T06:19:40.170Z,6.70
2023-04-04T06:22:09.564Z,9.30
2023-04-04T06:24:42.208Z,10.10
2023-04-04T06:27:14.482Z,9.63
2023-04-04T06:29:44.340Z,10.35
2023-04-04T06:32:17.668Z,10.88
2023-04-04T06:34:47.381Z,13.93
2023-04-04T06:37:19.468Z,14.23
2023-04-04T06:39:59.522Z,13.82
2023-04-04T06:42:30.248Z,13.32
2023-04-04T06:45:04.949Z,11.90
2023-04-04T06:47:34.352Z,11.02
2023-04-04T06:50:04.168Z,11.90
2023-04-04T06:52:33.820Z,11.50
2023-04-04T06:55:05.474Z,12.80
2023-04-04T06:57:34.969Z,11.35
2023-04-04T07:00:04.655Z,9.20
2023-04-04T07:02:34.400Z,9.85
2023-04-04T07:05:05.058Z,9.88
2023-04-04T07:07:34.593Z,9.20
2023-04-04T07:10:04.409Z,8.88
2023-04-04T07:12:34.565Z,8.48
2023-04-04T07:15:04.974Z,8.18
2023-04-04T07:17:34.367Z,7.60
2023-04-04T07:20:04.885Z,8.73
2023-04-04T07:22:34.560Z,8.45
2023-04-04T07:25:03.758Z,8.23
2023-04-04T07:27:33.157Z,10.48
2023-04-04T07:30:03.387Z,9.45
2023-04-04T07:32:33.022Z,9.70
2023-04-04T07:35:02.481Z,9.38
2023-04-04T07:37:31.994Z,8.52
2023-04-04T07:40:01.495Z,9.30
2023-04-04T07:42:32.380Z,9.40
2023-04-04T07:45:01.651Z,6.30
2023-04-04T07:47:31.114Z,6.07
2023-04-04T07:50:01.036Z,6.22
2023-04-04T07:52:30.413Z,7.43
2023-04-04T07:55:01.606Z,8.30
2023-04-04T07:57:31.134Z,6.80
2023-04-04T08:00:00.950Z,7.25
2023-04-04T08:02:30.390Z,7.20
2023-04-04T08:04:59.820Z,8.45
2023-04-04T08:07:30.411Z,8.95
2023-04-04T08:10:00.483Z,8.05
2023-04-04T08:12:29.660Z,8.75
2023-04-04T08:14:59.058Z,9.45
2023-04-04T08:17:28.711Z,11.05
2023-04-04T08:19:58.372Z,11.20
2023-04-04T08:22:28.302Z,9.82
2023-04-04T08:24:57.903Z,9.15
2023-04-04T08:27:26.998Z,9.05
2023-04-04T08:29:56.761Z,7.93
2023-04-04T08:32:26.300Z,9.60
2023-04-04T08:34:55.691Z,9.68
2023-04-04T08:37:24.959Z,8.10
2023-04-04T08:39:54.162Z,8.10
2023-04-04T08:42:24.586Z,7.32
2023-04-04T08:44:56.232Z,6.50
2023-04-04T08:47:27.031Z,6.15
2023-04-04T08:49:58.293Z,6.90
2023-04-04T08:52:30.954Z,6.10
2023-04-04T08:55:00.510Z,7.43
2023-04-04T08:57:30.730Z,8.18
2023-04-04T09:00:00.462Z,7.65
2023-04-04T09:03:00.961Z,7.65
2023-04-04T09:05:31.255Z,6.72
2023-04-04T09:08:01.217Z,6.13
2023-04-04T09:10:30.997Z,6.30
2023-04-04T09:13:12.530Z,6.55
2023-04-04T09:15:58.527Z,7.35
2023-04-04T09:18:28.603Z,7.97
2023-04-04T09:20:58.195Z,8.85
2023-04-04T09:23:27.256Z,7.63
2023-04-04T09:28:30.647Z,6.20
2023-04-04T09:31:06.857Z,6.60
2023-04-04T09:33:40.518Z,5.07
2023-04-04T09:36:13.848Z,6.05
2023-04-04T09:38:49.844Z,5.53
2023-04-04T09:41:21.887Z,5.97
2023-04-04T09:43:52.604Z,5.35
2023-04-04T09:46:22.337Z,5.18
2023-04-04T09:48:52.745Z,4.97
2023-04-04T09:51:22.109Z,4.40
2023-04-04T09:53:52.834Z,4.50
2023-04-04T09:56:23.514Z,3.67
2023-04-04T09:59:02.997Z,4.20
2023-04-04T10:01:35.467Z,3.35
2023-04-04T10:04:07.373Z,3.97
2023-04-04T10:06:38.558Z,3.53
2023-04-04T10:09:10.073Z,3.20
2023-04-04T10:11:39.913Z,4.20
2023-04-04T10:14:11.406Z,3.80
2023-04-04T10:16:46.919Z,3.80
2023-04-04T10:19:20.335Z,3.70
2023-04-04T10:21:50.284Z,4.35
2023-04-04T10:24:20.371Z,3.78
2023-04-04T10:26:50.061Z,3.55
2023-04-04T10:29:19.623Z,3.90
2023-04-04T10:31:55.911Z,3.97
2023-04-04T10:34:48.915Z,3.50
2023-04-04T10:37:28.247Z,3.50
2023-04-04T10:40:20.523Z,3.83
2023-04-04T10:42:52.866Z,3.53
2023-04-04T10:45:22.933Z,3.60
2023-04-04T10:47:53.444Z,3.10
2023-04-04T10:50:23.008Z,2.90
2023-04-04T10:52:54.379Z,3.92
2023-04-04T10:55:25.320Z,3.53
2023-04-04T10:57:56.695Z,3.40
2023-04-04T11:00:26.511Z,3.53
2023-04-04T11:03:00.666Z,4.20
2023-04-04T11:05:48.286Z,3.50
2023-04-04T11:08:21.908Z,2.47
2023-04-04T11:10:53.300Z,3.35
2023-04-04T11:13:41.139Z,2.72
2023-04-04T11:16:17.231Z,2.60
2023-04-04T11:18:50.530Z,2.60
2023-04-04T11:21:24.832Z,2.78
2023-04-04T11:23:54.463Z,3.10
2023-04-04T11:26:29.839Z,2.80
2023-04-04T11:29:03.446Z,4.53
2023-04-04T11:31:41.276Z,2.80
2023-04-04T11:34:13.727Z,2.95
2023-04-04T11:36:44.210Z,2.93
2023-04-04T11:39:32.261Z,2.53
2023-04-04T11:42:14.865Z,2.95
2023-04-04T11:45:04.647Z,2.80
2023-04-04T11:47:34.777Z,3.47
2023-04-04T11:50:09.942Z,2.97
2023-04-04T11:52:41.817Z,3.22
2023-04-04T11:55:22.921Z,3.17
2023-04-04T11:57:56.601Z,3.28
2023-04-04T12:00:40.517Z,3.00
2023-04-04T12:03:14.389Z,3.45
2023-04-04T12:05:45.570Z,3.40
2023-04-04T12:08:16.883Z,3.08
2023-04-04T12:10:47.001Z,3.50
2023-04-04T12:13:16.527Z,2.92
2023-04-04T12:15:46.014Z,3.17
2023-04-04T12:18:23.583Z,4.47
2023-04-04T12:20:53.776Z,3.45
2023-04-04T12:23:24.850Z,2.53
2023-04-04T12:25:56.891Z,3.60
2023-04-04T12:28:28.413Z,3.17
2023-04-04T12:30:58.429Z,3.35
2023-04-04T12:33:29.269Z,3.13
2023-04-04T12:35:58.561Z,3.40
2023-04-04T12:38:29.333Z,3.63
2023-04-04T12:40:59.308Z,3.45
2023-04-04T12:43:35.081Z,3.13
2023-04-04T12:46:10.075Z,3.40
2023-04-04T12:48:40.513Z,3.25
2023-04-04T12:51:12.356Z,3.78
2023-04-04T12:54:02.578Z,4.05
2023-04-04T12:56:33.316Z,3.38
2023-04-04T12:59:06.869Z,3.97
2023-04-04T13:04:10.905Z,3.88
2023-04-04T13:06:40.581Z,3.83
2023-04-04T13:09:21.962Z,4.15
2023-04-04T13:12:09.624Z,3.80
2023-04-04T13:15:02.086Z,3.58
2023-04-04T13:17:49.485Z,3.28
2023-04-04T13:20:22.508Z,5.35
2023-04-04T13:22:53.051Z,4.10
2023-04-04T13:25:23.130Z,3.45
2023-04-04T13:27:53.162Z,3.58
2023-04-04T13:30:23.442Z,4.00
2023-04-04T13:32:53.237Z,3.97
2023-04-04T13:35:22.493Z,3.78
2023-04-04T13:37:52.025Z,3.78
2023-04-04T13:40:21.967Z,4.22
2023-04-04T13:42:51.905Z,4.10
2023-04-04T13:45:21.871Z,4.13
2023-04-04T13:47:50.968Z,3.53
2023-04-04T13:50:22.205Z,3.97
2023-04-04T13:52:55.104Z,3.78
2023-04-04T13:55:25.024Z,3.47
2023-04-04T13:57:54.236Z,3.90
2023-04-04T14:00:27.806Z,3.80
2023-04-04T14:02:59.376Z,4.03
2023-04-04T14:05:29.253Z,3.80
2023-04-04T14:07:58.551Z,3.80
2023-04-04T14:10:27.575Z,4.03
2023-04-04T14:12:57.357Z,4.32
2023-04-04T14:15:26.685Z,4.28
2023-04-04T14:17:56.297Z,4.18
2023-04-04T14:20:25.679Z,4.30
2023-04-04T14:22:54.850Z,4.85
2023-04-04T14:25:24.313Z,4.70
2023-04-04T14:27:53.391Z,6.50
2023-04-04T14:30:23.057Z,6.57
2023-04-04T14:32:53.161Z,7.40
2023-04-04T14:35:23.135Z,8.10
2023-04-04T14:37:53.984Z,8.93
2023-04-04T14:40:24.570Z,9.23
2023-04-04T14:42:54.352Z,9.50
2023-04-04T14:45:25.296Z,10.52
2023-04-04T14:47:55.172Z,10.40
2023-04-04T14:50:25.731Z,11.88
2023-04-04T14:52:57.955Z,11.32
2023-04-04T14:55:28.458Z,11.32
2023-04-04T14:58:02.552Z,11.77
2023-04-04T15:00:33.131Z,10.77
2023-04-04T15:03:05.650Z,10.85
2023-04-04T15:05:38.210Z,10.07
2023-04-04T15:08:08.614Z,10.32
2023-04-04T15:10:38.659Z,10.70
2023-04-04T15:13:08.588Z,10.27
2023-04-04T15:15:38.214Z,10.70
2023-04-04T15:18:08.136Z,11.30
2023-04-04T15:20:40.715Z,11.95
2023-04-04T15:23:10.490Z,12.18
2023-04-04T15:25:40.586Z,11.15
2023-04-04T15:28:10.439Z,11.80
2023-04-04T15:30:40.039Z,11.68
2023-04-04T15:33:10.403Z,13.23
2023-04-04T15:35:40.025Z,12.23
2023-04-04T15:38:10.461Z,11.93
2023-04-04T15:40:40.829Z,12.10
2023-04-04T15:43:10.459Z,12.50
2023-04-04T15:45:40.545Z,12.75
2023-04-04T15:48:10.648Z,12.50
2023-04-04T15:50:40.356Z,12.90
2023-04-04T15:53:10.694Z,12.82
2023-04-04T15:55:40.568Z,13.73
2023-04-04T15:58:10.397Z,13.30
2023-04-04T16:00:47.282Z,13.50
2023-04-04T16:03:17.391Z,14.52
2023-04-04T16:05:47.871Z,13.48
2023-04-04T16:08:18.036Z,13.00
2023-04-04T16:10:48.086Z,14.10
2023-04-04T16:13:18.003Z,12.57
2023-04-04T16:15:47.874Z,13.23
2023-04-04T16:18:17.506Z,13.93
2023-04-04T16:20:47.377Z,12.88
2023-04-04T16:23:17.153Z,12.90
2023-04-04T16:25:47.039Z,11.85
2023-04-04T16:28:17.401Z,12.77
2023-04-04T16:30:47.385Z,12.52
2023-04-04T16:33:17.773Z,12.30
2023-04-04T16:35:47.920Z,13.10
2023-04-04T16:38:21.381Z,12.43
2023-04-04T16:40:51.371Z,13.75
2023-04-04T16:43:21.736Z,13.32
2023-04-04T16:45:51.978Z,13.13
2023-04-04T16:48:22.597Z,13.73
2023-04-04T16:50:52.938Z,13.57
2023-04-04T16:53:23.433Z,13.82
2023-04-04T16:55:53.242Z,13.55
2023-04-04T16:58:23.785Z,13.43
2023-04-04T17:00:53.814Z,13.20
2023-04-04T17:03:24.061Z,14.50
2023-04-04T17:06:02.212Z,18.00
2023-04-04T17:08:33.923Z,16.65
2023-04-04T17:11:04.225Z,15.05
2023-04-04T17:13:34.089Z,15.90
2023-04-04T17:16:04.196Z,17.45
2023-04-04T17:18:35.752Z,18.60
2023-04-04T17:21:06.637Z,20.92
2023-04-04T17:23:37.147Z,20.23
2023-04-04T17:26:07.925Z,21.50
2023-04-04T17:28:38.527Z,22.30
2023-04-04T17:31:09.726Z,21.75
2023-04-04T17:33:40.238Z,22.67
2023-04-04T17:36:11.122Z,20.92
2023-04-04T17:38:42.669Z,22.30
2023-04-04T17:41:13.401Z,21.60
2023-04-04T17:43:44.207Z,21.67
2023-04-04T17:46:15.139Z,21.45
2023-04-04T17:48:46.866Z,22.17
2023-04-04T17:51:18.025Z,23.38
2023-04-04T17:53:49.036Z,24.77
2023-04-04T17:56:19.798Z,26.73
2023-04-04T17:58:51.331Z,26.67
2023-04-04T18:01:24.107Z,26.30
2023-04-04T18:03:55.039Z,29.58
2023-04-04T18:06:25.554Z,28.92
2023-04-04T18:08:57.096Z,28.35
2023-04-04T18:11:29.709Z,31.08
2023-04-04T18:13:59.798Z,30.45
2023-04-04T18:16:30.476Z,29.60
2023-04-04T18:19:01.765Z,31.23
2023-04-04T18:21:33.003Z,29.33
2023-04-04T18:24:03.899Z,28.02
2023-04-04T18:26:35.915Z,28.58
2023-04-04T18:29:07.098Z,28.05
2023-04-04T18:31:38.283Z,28.20
2023-04-04T18:34:09.772Z,30.50
2023-04-04T18:36:41.537Z,27.95
2023-04-04T18:39:13.359Z,30.13
2023-04-04T18:41:44.112Z,28.05
2023-04-04T18:44:14.696Z,28.42
2023-04-04T18:46:44.838Z,28.90
2023-04-04T18:49:14.990Z,30.42
2023-04-04T18:51:45.209Z,29.80
2023-04-04T18:54:15.408Z,30.50
2023-04-04T18:56:45.851Z,31.45
2023-04-04T18:59:16.672Z,31.17
2023-04-04T19:01:46.984Z,33.03
2023-04-04T19:04:22.405Z,34.50
2023-04-04T19:06:55.562Z,34.47
2023-04-04T19:09:26.425Z,38.70
2023-04-04T19:12:00.025Z,38.05
2023-04-04T19:14:32.432Z,38.92
2023-04-04T19:17:03.910Z,38.65
2023-04-04T19:19:34.046Z,37.92
2023-04-04T19:22:04.424Z,39.58
2023-04-04T19:24:34.827Z,40.80
2023-04-04T19:27:04.918Z,40.88
2023-04-04T19:29:37.990Z,41.22
2023-04-04T19:32:21.105Z,45.08
2023-04-04T19:34:51.374Z,44.42
2023-04-04T19:37:21.663Z,45.50
2023-04-04T19:39:52.015Z,45.47
2023-04-04T19:42:29.314Z,49.88
2023-04-04T19:44:59.576Z,51.70
2023-04-04T19:47:29.673Z,52.47
2023-04-04T19:49:59.711Z,56.45
2023-04-04T19:52:29.443Z,55.17
2023-04-04T19:54:58.851Z,56.88
2023-04-04T19:57:28.731Z,57.95
2023-04-04T19:59:58.851Z,58.42
2023-04-04T20:02:34.722Z,57.95
2023-04-04T20:05:24.421Z,56.60
2023-04-04T20:07:54.735Z,55.80
2023-04-04T20:10:41.593Z,54.00
2023-04-04T20:13:12.339Z,55.65
2023-04-04T20:15:48.809Z,57.08
2023-04-04T20:18:30.073Z,58.30
2023-04-04T20:21:09.130Z,60.13
2023-04-04T20:23:55.082Z,60.50
2023-04-04T20:26:55.465Z,63.50
2023-04-04T20:29:31.034Z,59.90
2023-04-04T20:32:06.528Z,60.67
2023-04-04T20:34:43.895Z,60.67
2023-04-04T20:37:27.357Z,61.25
2023-04-04T20:40:13.447Z,59.30
2023-04-04T20:42:43.094Z,57.55
2023-04-04T20:45:29.098Z,58.10
2023-04-04T20:47:59.377Z,59.05
2023-04-04T20:50:28.932Z,58.30
2023-04-04T20:53:02.829Z,57.72
2023-04-04T20:55:34.354Z,56.80
2023-04-04T20:58:10.617Z,56.17
2023-04-04T21:00:41.530Z,55.55
2023-04-04T21:03:38.970Z,57.15
2023-04-04T21:06:14.515Z,57.33
2023-04-04T21:08:52.603Z,58.63
2023-04-04T21:11:31.233Z,56.78
2023-04-04T21:14:01.014Z,57.03
2023-04-04T21:16:31.046Z,57.33
2023-04-04T21:19:02.835Z,56.40
2023-04-04T21:21:32.572Z,59.28
2023-04-04T21:24:02.902Z,55.83
2023-04-04T21:26:43.113Z,56.75
2023-04-04T21:29:27.330Z,56.90
2023-04-04T21:31:57.612Z,57.53
2023-04-04T21:34:28.664Z,55.53
2023-04-04T21:37:02.570Z,56.22
2023-04-04T21:39:32.870Z,55.47
2023-04-04T21:42:05.981Z,54.33
2023-04-04T21:44:39.296Z,55.15
2023-04-04T21:47:08.801Z,52.95
2023-04-04T21:49:38.096Z,53.70
2023-04-04T21:52:07.466Z,51.33
2023-04-04T21:54:39.068Z,52.92
2023-04-04T21:57:08.338Z,52.25
2023-04-04T21:59:37.500Z,49.03
2023-04-04T22:02:06.822Z,49.10
2023-04-04T22:04:36.786Z,49.05
2023-04-04T22:07:06.028Z,45.50
2023-04-04T22:09:35.241Z,44.15
2023-04-04T22:12:04.650Z,43.22
2023-04-04T22:14:33.959Z,44.80
2023-04-04T22:17:04.298Z,41.60
2023-04-04T22:19:44.197Z,44.25
2023-04-04T22:22:14.808Z,42.75
2023-04-04T22:24:44.067Z,42.00
2023-04-04T22:27:14.763Z,41.40
2023-04-04T22:29:44.259Z,42.15
2023-04-04T22:32:13.450Z,38.20
2023-04-04T22:34:42.950Z,40.72
2023-04-04T22:37:12.471Z,39.17
2023-04-04T22:39:43.775Z,38.10
2023-04-04T22:42:16.070Z,37.45
2023-04-04T22:44:46.009Z,35.40
2023-04-04T22:47:15.706Z,33.92
2023-04-04T22:49:50.284Z,32.30
2023-04-04T22:52:20.034Z,31.83
2023-04-04T22:54:50.407Z,29.02
2023-04-04T22:57:19.853Z,30.08
2023-04-04T22:59:49.325Z,29.80
2023-04-04T23:02:18.433Z,31.23
2023-04-04T23:04:48.628Z,31.98
2023-04-04T23:07:17.767Z,30.45
2023-04-04T23:09:47.104Z,30.58
2023-04-04T23:12:16.704Z,31.85
2023-04-04T23:14:46.193Z,32.13
2023-04-04T23:17:15.226Z,30.65
2023-04-04T23:19:44.852Z,30.30
2023-04-04T23:22:14.123Z,30.10
2023-04-04T23:24:45.924Z,30.02
2023-04-04T23:27:15.712Z,30.02
2023-04-04T23:29:45.284Z,30.50
2023-04-04T23:32:15.000Z,29.77
2023-04-04T23:34:44.360Z,28.23
2023-04-04T23:37:13.696Z,29.70
2023-04-04T23:39:43.239Z,27.02
2023-04-04T23:42:12.888Z,29.38
2023-04-04T23:44:42.157Z,29.88
2023-04-04T23:47:11.962Z,31.17
2023-04-04T23:49:41.459Z,30.40
2023-04-04T23:52:10.686Z,31.63
2023-04-04T23:54:40.185Z,33.67
2023-04-04T23:57:09.464Z,32.83
2023-04-04T23:59:40.808Z,30.90
